Terminal Aerodrome Forecast
Issued by NWS Pendleton, OR

Home | Current Version | Previous Version | Text Only | Print | Product List | Glossary On
Versions: 1 2 3 4 5 6 7 8 9 10 11 12 13 14 15
659
FTUS46 KPDT 041740
TAFPDT
TAF
KPDT 041740Z 0418/0518 VRB06KT P6SM SCT100 BKN250
     FM042200 36010KT P6SM VCSH SCT070
      TEMPO 0423/0503 -TSRA BKN050CB BKN100
     FM050300 32007KT P6SM VCSH OVC070
      TEMPO 0503/0507 -RA BKN050
     FM050700 36008KT P6SM BKN100 BKN250=

USA.gov is the U.S. government's official web portal to all federal, state and local government web resources and services.